WetterOnline ( https://www.wetteronline.de )

Wetter aktuell Offenbach

Aktuelles Wetter: Offenbach (119m)

6-stündlich | Neueste Meldungen
Ortszeit Temperatur Wetter
Di, 15.10. 2:00 12.3° C leicht bewölkt
Mo, 14.10. 20:00 18.0° C wolkenlos
Mo, 14.10. 14:00 23.7° C fast wolkenlos
Mo, 14.10. 8:00 11.5° C bewölkt
Mo, 14.10. 2:00 14.0° C fast wolkenlos
So, 13.10. 20:00 18.5° C wolkenlos
So, 13.10. 14:00 24.1° C bewölkt
So, 13.10. 8:00 13.5° C wolkenlos
Ortszeit Temperatur Wetter
Di, 15.10. 2:00 12.3° C leicht bewölkt
Di, 15.10. 1:40 12.3° C leicht bewölkt
Di, 15.10. 1:30 12.6° C wolkig
Di, 15.10. 1:20 12.6° C wolkig
Di, 15.10. 1:10 12.8° C wolkig
Di, 15.10. 1:00 13.2° C leicht bewölkt
Di, 15.10. 0:50 13.2° C leicht bewölkt
Di, 15.10. 0:30 13.3° C leicht bewölkt
Di, 15.10. 0:00 13.8° C leicht bewölkt
Mo, 14.10. 23:30 13.8° C leicht bewölkt
Mo, 14.10. 23:00 13.7° C wolkig
Ortszeit Relative Feuchte Sichtweite
Di, 15.10. 2:00 98% 18 km
Mo, 14.10. 20:00 80% 35 km
Mo, 14.10. 14:00 51% 50 km
Mo, 14.10. 8:00 100% 5.0 km
Mo, 14.10. 2:00 97% 19 km
So, 13.10. 20:00 80% 45 km
So, 13.10. 14:00 52% 50 km
So, 13.10. 8:00 97% 23 km
Ortszeit Relative Feuchte Sichtweite
Di, 15.10. 2:00 98% 18 km
Di, 15.10. 1:40 99% -
Di, 15.10. 1:30 98% 19 km
Di, 15.10. 1:20 98% -
Di, 15.10. 1:10 98% -
Di, 15.10. 1:00 98% 21 km
Di, 15.10. 0:50 98% -
Di, 15.10. 0:30 97% 22 km
Di, 15.10. 0:00 95% 26 km
Mo, 14.10. 23:30 96% 22 km
Mo, 14.10. 23:00 99% 16 km
Ortszeit Niederschlagsmenge Niederschlagsart
Di, 15.10. 2:00 0.0 l/m2 in 6 Std. -
Mo, 14.10. 20:00 0.0 l/m2 in 12 Std. -
Mo, 14.10. 14:00 0.0 l/m2 in 6 Std. -
Mo, 14.10. 8:00 0.0 l/m2 in 12 Std. -
Mo, 14.10. 2:00 0.0 l/m2 in 6 Std. -
So, 13.10. 20:00 0.0 l/m2 in 12 Std. -
So, 13.10. 14:00 0.1 l/m2 in 6 Std. -
So, 13.10. 8:00 0.1 l/m2 in 12 Std. -
Ortszeit Niederschlagsmenge Niederschlagsart
Di, 15.10. 2:00 0.0 l/m2 in 1 Std. -
Di, 15.10. 1:40 keine Meldung -
Di, 15.10. 1:30 0.0 l/m2 in 1 Std. -
Di, 15.10. 1:20 keine Meldung -
Di, 15.10. 1:10 keine Meldung -
Di, 15.10. 1:00 0.0 l/m2 in 1 Std. -
Di, 15.10. 0:50 keine Meldung -
Di, 15.10. 0:30 0.0 l/m2 in 1 Std. -
Di, 15.10. 0:00 0.0 l/m2 in 1 Std. -
Mo, 14.10. 23:30 0.0 l/m2 in 1 Std. -
Mo, 14.10. 23:00 0.0 l/m2 in 1 Std. -
Ortszeit Stärke Spitze Richtung
km/h Bft. km/h Grad Sektor
Di, 15.10. 2:00 2 1 15 160° S
Mo, 14.10. 20:00 7 2 22 100° O
Mo, 14.10. 14:00 13 3 24 150° SO
Mo, 14.10. 8:00 4 1 11 130° SO
Mo, 14.10. 2:00 4 1 14 100° O
So, 13.10. 20:00 9 2 39 150° SO
So, 13.10. 14:00 15 3 26 170° S
So, 13.10. 8:00 4 1 18 160° S
Ortszeit Stärke Spitze Richtung
km/h Bft. km/h Grad Sektor
Di, 15.10. 2:00 2 1 4 160° S
Di, 15.10. 1:40 4 1 - 160° S
Di, 15.10. 1:30 0 0 4 - -
Di, 15.10. 1:20 2 1 - 30° NO
Di, 15.10. 1:10 2 1 - 30° NO
Di, 15.10. 1:00 4 1 7 150° SO
Di, 15.10. 0:50 4 1 - 150° SO
Di, 15.10. 0:30 4 1 7 110° O
Di, 15.10. 0:00 4 1 14 150° SO
Mo, 14.10. 23:30 4 1 14 110° O
Mo, 14.10. 23:00 4 1 7 110° O
Ortszeit Untergrenze Bedeckung Gattung
total tief tief mittel hoch
Di, 15.10. 2:00 10500 m 3/8 0/8 - - -
Mo, 14.10. 20:00 - 0/8 0/8 - - -
Mo, 14.10. 14:00 9000 m 2/8 0/8 - - -
Mo, 14.10. 8:00 6600 m 7/8 7/8 - - -
Mo, 14.10. 2:00 3300 m 1/8 1/8 - - -
So, 13.10. 20:00 3300 m 0/8 0/8 - - -
So, 13.10. 14:00 4200 m 7/8 7/8 - - -
So, 13.10. 8:00 - 0/8 0/8 - - -
Ortszeit Bedeckungsgrad in Achtel und Wolkenuntergrenze
Di, 15.10. 2:00 3(10500m)
Di, 15.10. 1:40 6(10500m)
Di, 15.10. 1:30 8(10500m)
Di, 15.10. 1:20 8(10500m)
Di, 15.10. 1:10 7(10500m)
Di, 15.10. 1:00 3(9000m) 5(10500m)
Di, 15.10. 0:50 3(9000m) 5(10500m)
Di, 15.10. 0:30 4(9000m) 5(10500m)
Di, 15.10. 0:00 3(8100m) 5(10500m) 5(10500m)
Mo, 14.10. 23:30 2(8400m) 6(10500m) 6(10500m)
Mo, 14.10. 23:00 7(8700m) 7(9000m)
Ortszeit Luftdruck NN (hPa) Tendenz (hPa in 3 Std.)
Di, 15.10. 2:00 1010 - 0,2
Mo, 14.10. 20:00 1010 - 1,3
Mo, 14.10. 14:00 1013 - 2,0
Mo, 14.10. 8:00 1015 + 0,4
Mo, 14.10. 2:00 1014 + 0,4
So, 13.10. 20:00 1012 + 0,5
So, 13.10. 14:00 1013 - 1,1
So, 13.10. 8:00 1014 + 0,1
Ortszeit Luftdruck NN (hPa) Tendenz (hPa in 3 Std.)
Di, 15.10. 2:00 1010 - 0,2
Di, 15.10. 1:40 1010 keine Meldung
Di, 15.10. 1:30 1010 - 0,4
Di, 15.10. 1:20 1010 keine Meldung
Di, 15.10. 1:10 1010 keine Meldung
Di, 15.10. 1:00 1010 - 0,5
Di, 15.10. 0:50 1010 keine Meldung
Di, 15.10. 0:30 1010 - 0,3
Di, 15.10. 0:00 1010 - 0,3
Mo, 14.10. 23:30 1010 - 0,4
Mo, 14.10. 23:00 1010 - 0,2
Ortszeit Schneehöhe (cm)
Di, 15.10. 2:00 0
Mo, 14.10. 20:00 0
Mo, 14.10. 14:00 0
Mo, 14.10. 8:00 0
Mo, 14.10. 2:00 0
So, 13.10. 20:00 0
So, 13.10. 14:00 0
So, 13.10. 8:00 0
Ortszeit Schneehöhe (cm)
Di, 15.10. 2:00 0
Di, 15.10. 1:40 0
Di, 15.10. 1:30 0
Di, 15.10. 1:20 0
Di, 15.10. 1:10 0
Di, 15.10. 1:00 0
Di, 15.10. 0:50 0
Di, 15.10. 0:30 0
Di, 15.10. 0:00 0
Mo, 14.10. 23:30 0
Mo, 14.10. 23:00 0
Link zu dieser Seite / Seite empfehlen

Das Wetter in ...